createdAt,value
2018-08-17T00:01:58.296Z,82.00
2018-08-17T00:04:25.959Z,81.60
2018-08-17T00:06:53.637Z,81.00
2018-08-17T00:09:21.291Z,80.40
2018-08-17T00:11:48.937Z,80.20
2018-08-17T00:14:16.619Z,79.80
2018-08-17T00:16:45.127Z,79.50
2018-08-17T00:19:12.770Z,79.40
2018-08-17T00:21:40.466Z,79.10
2018-08-17T00:24:08.119Z,78.30
2018-08-17T00:26:35.770Z,78.20
2018-08-17T00:29:03.442Z,78.20
2018-08-17T00:31:31.055Z,78.00
2018-08-17T00:33:58.758Z,77.80
2018-08-17T00:36:26.442Z,77.80
2018-08-17T00:38:54.059Z,77.50
2018-08-17T00:41:21.745Z,77.40
2018-08-17T00:43:49.423Z,77.10
2018-08-17T00:46:17.066Z,77.10
2018-08-17T00:48:44.666Z,77.10
2018-08-17T00:51:12.338Z,76.90
2018-08-17T00:53:39.965Z,77.10
2018-08-17T00:56:07.698Z,77.00
2018-08-17T00:58:35.358Z,77.10
2018-08-17T01:01:03.228Z,77.00
2018-08-17T01:03:30.931Z,77.30
2018-08-17T01:05:58.558Z,77.00
2018-08-17T01:08:26.534Z,76.80
2018-08-17T01:10:54.316Z,76.80
2018-08-17T01:13:21.961Z,77.00
2018-08-17T01:15:49.607Z,77.10
2018-08-17T01:18:17.269Z,77.10
2018-08-17T01:20:44.973Z,77.00
2018-08-17T01:23:12.635Z,77.10
2018-08-17T01:25:40.283Z,76.90
2018-08-17T01:28:08.741Z,77.10
2018-08-17T01:30:36.410Z,77.20
2018-08-17T01:33:04.022Z,77.40
2018-08-17T01:35:31.710Z,77.30
2018-08-17T01:37:59.319Z,77.40
2018-08-17T01:40:26.948Z,77.90
2018-08-17T01:42:54.609Z,77.70
2018-08-17T01:45:22.228Z,77.70
2018-08-17T01:47:49.834Z,78.30
2018-08-17T01:50:17.449Z,78.40
2018-08-17T01:52:45.110Z,78.60
2018-08-17T01:55:12.762Z,79.50
2018-08-17T01:57:40.465Z,79.40
2018-08-17T02:00:11.113Z,79.80
2018-08-17T02:02:40.477Z,79.70
2018-08-17T02:05:08.789Z,80.50
2018-08-17T02:07:36.578Z,81.90
2018-08-17T02:10:05.826Z,83.00
2018-08-17T02:12:33.454Z,84.70
2018-08-17T02:15:01.188Z,85.60
2018-08-17T02:17:28.806Z,87.20
2018-08-17T02:19:56.441Z,87.80
2018-08-17T02:22:30.587Z,88.70
2018-08-17T02:24:58.239Z,89.60
2018-08-17T02:27:25.875Z,90.10
2018-08-17T02:29:53.551Z,90.20
2018-08-17T02:32:21.182Z,90.40
2018-08-17T02:34:48.815Z,90.40
2018-08-17T02:37:16.476Z,90.50
2018-08-17T02:39:44.133Z,90.60
2018-08-17T02:42:11.765Z,90.70
2018-08-17T02:44:39.430Z,90.80
2018-08-17T02:47:07.059Z,91.00
2018-08-17T02:49:34.747Z,90.80
2018-08-17T02:52:02.542Z,90.80
2018-08-17T02:54:30.238Z,90.70
2018-08-17T02:56:57.966Z,90.70
2018-08-17T02:59:25.801Z,90.80
2018-08-17T03:01:53.443Z,91.10
2018-08-17T03:04:27.751Z,91.20
2018-08-17T03:06:55.423Z,91.40
2018-08-17T03:09:23.056Z,91.40
2018-08-17T03:11:50.704Z,91.50
2018-08-17T03:14:18.363Z,92.00
2018-08-17T03:16:46.010Z,92.20
2018-08-17T03:19:13.670Z,92.30
2018-08-17T03:21:41.315Z,92.40
2018-08-17T03:24:08.940Z,92.40
2018-08-17T03:26:36.542Z,92.50
2018-08-17T03:29:04.351Z,92.60
2018-08-17T03:31:32.018Z,92.90
2018-08-17T03:33:59.694Z,93.20
2018-08-17T03:36:27.380Z,93.40
2018-08-17T03:38:54.994Z,93.70
2018-08-17T03:41:22.683Z,93.60
2018-08-17T03:43:50.346Z,93.80
2018-08-17T03:46:17.990Z,93.90
2018-08-17T03:48:45.622Z,93.90
2018-08-17T03:51:13.263Z,93.90
2018-08-17T03:53:40.933Z,94.10
2018-08-17T03:56:08.568Z,94.10
2018-08-17T03:58:36.271Z,94.00
2018-08-17T04:01:03.994Z,94.10
2018-08-17T04:03:31.605Z,93.70
2018-08-17T04:05:59.242Z,94.00
2018-08-17T04:08:27.003Z,93.50
2018-08-17T04:10:54.706Z,99.50
2018-08-17T04:13:22.872Z,94.60
2018-08-17T04:15:50.562Z,93.90
2018-08-17T04:18:18.207Z,94.70
2018-08-17T04:20:45.842Z,92.90
2018-08-17T04:23:13.491Z,92.90
2018-08-17T04:25:41.113Z,93.60
2018-08-17T04:28:08.721Z,93.10
2018-08-17T04:30:36.345Z,93.40
2018-08-17T04:33:04.010Z,92.60
2018-08-17T04:35:31.683Z,92.50
2018-08-17T04:37:59.314Z,92.10
2018-08-17T04:40:27.014Z,90.40
2018-08-17T04:42:54.657Z,90.20
2018-08-17T04:45:22.327Z,89.50
2018-08-17T04:47:49.964Z,86.10
2018-08-17T04:50:17.781Z,84.40
2018-08-17T04:52:45.455Z,85.10
2018-08-17T04:55:13.296Z,84.30
2018-08-17T04:57:40.983Z,86.80
2018-08-17T05:00:09.842Z,85.00
2018-08-17T05:02:38.880Z,86.90
2018-08-17T05:05:07.555Z,85.00
2018-08-17T05:07:35.581Z,84.10
2018-08-17T05:10:04.378Z,81.40
2018-08-17T05:12:32.035Z,73.00
2018-08-17T05:15:00.014Z,69.00
2018-08-17T05:17:28.001Z,67.10
2018-08-17T05:19:55.902Z,65.40
2018-08-17T05:22:23.717Z,60.00
2018-08-17T05:24:51.551Z,55.50
2018-08-17T05:27:19.368Z,52.90
2018-08-17T05:29:47.070Z,54.60
2018-08-17T05:32:14.739Z,56.30
2018-08-17T05:34:42.398Z,58.70
2018-08-17T05:37:10.030Z,57.20
2018-08-17T05:39:37.750Z,56.30
2018-08-17T05:42:05.458Z,57.30
2018-08-17T05:44:33.081Z,57.90
2018-08-17T05:47:00.780Z,58.50
2018-08-17T05:49:28.490Z,58.90
2018-08-17T05:51:56.159Z,59.10
2018-08-17T05:54:23.784Z,58.30
2018-08-17T05:56:51.495Z,50.70
2018-08-17T05:59:19.153Z,45.90
2018-08-17T06:01:46.787Z,47.70
2018-08-17T06:04:14.464Z,49.70
2018-08-17T06:06:42.179Z,46.20
2018-08-17T06:09:10.283Z,40.60
2018-08-17T06:11:38.115Z,37.40
2018-08-17T06:14:06.074Z,36.30
2018-08-17T06:16:33.727Z,33.70
2018-08-17T06:19:01.354Z,31.60
2018-08-17T06:21:28.991Z,32.30
2018-08-17T06:23:56.703Z,31.40
2018-08-17T06:26:24.315Z,30.30
2018-08-17T06:28:51.943Z,30.20
2018-08-17T06:31:19.577Z,30.30
2018-08-17T06:33:47.271Z,29.90
2018-08-17T06:36:14.960Z,30.10
2018-08-17T06:38:42.561Z,31.30
2018-08-17T06:41:10.203Z,32.00
2018-08-17T06:43:37.883Z,31.00
2018-08-17T06:46:05.554Z,29.90
2018-08-17T06:48:33.168Z,29.40
2018-08-17T06:51:00.988Z,28.30
2018-08-17T06:53:28.827Z,27.00
2018-08-17T06:55:56.547Z,26.20
2018-08-17T06:58:24.283Z,25.50
2018-08-17T07:00:51.967Z,25.10
2018-08-17T07:03:19.698Z,27.60
2018-08-17T07:05:47.406Z,29.90
2018-08-17T07:08:15.125Z,30.30
2018-08-17T07:10:42.803Z,30.90
2018-08-17T07:13:10.426Z,31.20
2018-08-17T07:15:38.105Z,32.60
2018-08-17T07:18:05.858Z,32.80
2018-08-17T07:20:33.514Z,32.20
2018-08-17T07:23:01.143Z,29.80
2018-08-17T07:25:29.350Z,27.50
2018-08-17T07:27:57.073Z,26.30
2018-08-17T07:30:24.629Z,25.90
2018-08-17T07:32:52.230Z,25.40
2018-08-17T07:35:19.843Z,24.60
2018-08-17T07:37:47.486Z,24.10
2018-08-17T07:40:15.186Z,24.70
2018-08-17T07:42:42.811Z,24.90
2018-08-17T07:45:10.464Z,24.50
2018-08-17T07:47:38.102Z,25.50
2018-08-17T07:50:05.743Z,26.20
2018-08-17T07:52:33.430Z,25.60
2018-08-17T07:55:01.246Z,25.70
2018-08-17T07:57:28.863Z,25.00
2018-08-17T07:59:56.466Z,24.40
2018-08-17T08:02:24.083Z,24.00
2018-08-17T08:04:51.684Z,23.60
2018-08-17T08:07:19.339Z,24.00
2018-08-17T08:09:46.974Z,24.80
2018-08-17T08:12:14.591Z,26.90
2018-08-17T08:14:42.302Z,29.10
2018-08-17T08:17:09.907Z,30.80
2018-08-17T08:19:37.545Z,32.60
2018-08-17T08:22:05.318Z,33.60
2018-08-17T08:24:39.569Z,34.80
2018-08-17T08:27:07.654Z,35.10
2018-08-17T08:29:35.258Z,35.00
2018-08-17T08:32:02.938Z,35.60
2018-08-17T08:34:30.555Z,36.00
2018-08-17T08:36:58.197Z,35.90
2018-08-17T08:39:25.815Z,36.30
2018-08-17T08:41:53.398Z,37.00
2018-08-17T08:44:20.991Z,37.80
2018-08-17T08:46:48.587Z,37.80
2018-08-17T08:49:16.228Z,37.80
2018-08-17T08:51:43.867Z,37.90
2018-08-17T08:54:11.450Z,37.90
2018-08-17T08:56:39.077Z,37.10
2018-08-17T08:59:06.713Z,38.20
2018-08-17T09:01:34.318Z,38.50
2018-08-17T09:04:01.976Z,38.70
2018-08-17T09:06:29.600Z,38.80
2018-08-17T09:08:57.218Z,39.20
2018-08-17T09:11:24.836Z,39.00
2018-08-17T09:13:52.541Z,38.80
2018-08-17T09:16:20.219Z,39.00
2018-08-17T09:18:47.843Z,38.90
2018-08-17T09:21:15.497Z,38.70
2018-08-17T09:23:43.130Z,38.50
2018-08-17T09:26:10.785Z,38.30
2018-08-17T09:28:38.642Z,39.80
2018-08-17T09:31:06.619Z,39.90
2018-08-17T09:33:34.378Z,39.70
2018-08-17T09:36:02.107Z,40.30
2018-08-17T09:38:29.756Z,40.20
2018-08-17T09:40:57.362Z,40.00
2018-08-17T09:43:25.005Z,39.40
2018-08-17T09:45:52.605Z,39.70
2018-08-17T09:48:20.258Z,40.00
2018-08-17T09:50:47.926Z,39.70
2018-08-17T09:53:15.542Z,39.70
2018-08-17T09:55:43.244Z,39.90
2018-08-17T09:58:10.890Z,40.10
2018-08-17T10:00:39.534Z,40.40
2018-08-17T10:03:12.728Z,40.00
2018-08-17T10:05:42.139Z,39.70
2018-08-17T10:08:15.318Z,40.20
2018-08-17T10:10:43.449Z,40.80
2018-08-17T10:13:11.106Z,40.50
2018-08-17T10:15:38.738Z,40.20
2018-08-17T10:18:06.394Z,40.60
2018-08-17T10:20:34.089Z,41.50
2018-08-17T10:23:05.403Z,41.10
2018-08-17T10:25:33.019Z,41.10
2018-08-17T10:28:00.626Z,41.40
2018-08-17T10:30:28.268Z,40.80
2018-08-17T10:32:58.852Z,41.30
2018-08-17T10:35:31.581Z,41.50
2018-08-17T10:38:00.527Z,40.80
2018-08-17T10:40:28.490Z,40.90
2018-08-17T10:42:57.015Z,40.30
2018-08-17T10:45:25.584Z,40.70
2018-08-17T10:47:53.503Z,40.50
2018-08-17T10:50:22.469Z,40.30
2018-08-17T10:52:52.130Z,40.60
2018-08-17T10:55:20.461Z,41.30
2018-08-17T10:57:48.107Z,41.30
2018-08-17T11:00:17.374Z,41.90
2018-08-17T11:02:45.334Z,41.50
2018-08-17T11:05:14.504Z,42.30
2018-08-17T11:07:42.342Z,43.30
2018-08-17T11:10:10.907Z,43.30
2018-08-17T11:12:40.127Z,43.70
2018-08-17T11:15:07.786Z,43.80
2018-08-17T11:17:35.686Z,43.80
2018-08-17T11:20:03.559Z,43.80
2018-08-17T11:22:31.222Z,43.90
2018-08-17T11:25:00.634Z,43.80
2018-08-17T11:27:28.282Z,44.40
2018-08-17T11:29:55.904Z,44.50
2018-08-17T11:32:23.547Z,44.70
2018-08-17T11:34:53.228Z,44.80
2018-08-17T11:37:21.360Z,45.00
2018-08-17T11:39:59.981Z,45.30
2018-08-17T11:42:32.423Z,45.40
2018-08-17T11:45:00.227Z,45.50
2018-08-17T11:47:27.894Z,45.50
2018-08-17T11:49:55.647Z,45.90
2018-08-17T11:52:23.718Z,45.80
2018-08-17T11:54:51.332Z,45.70
2018-08-17T11:57:19.003Z,45.70
2018-08-17T11:59:52.178Z,45.50
2018-08-17T12:02:19.827Z,45.30
2018-08-17T12:04:47.520Z,45.00
2018-08-17T12:07:15.270Z,44.80
2018-08-17T12:09:48.093Z,44.40
2018-08-17T12:12:21.377Z,44.30
2018-08-17T12:14:49.284Z,44.40
2018-08-17T12:17:17.553Z,43.70
2018-08-17T12:19:45.243Z,43.40
2018-08-17T12:22:12.873Z,42.40
2018-08-17T12:24:40.651Z,43.00
2018-08-17T12:27:08.271Z,42.70
2018-08-17T12:29:35.909Z,42.20
2018-08-17T12:32:03.653Z,42.80
2018-08-17T12:34:31.283Z,43.40
2018-08-17T12:36:58.934Z,43.20
2018-08-17T12:39:26.589Z,44.00
2018-08-17T12:41:54.219Z,43.40
2018-08-17T12:44:21.842Z,43.10
2018-08-17T12:46:49.435Z,43.10
2018-08-17T12:49:17.061Z,42.70
2018-08-17T12:51:44.717Z,43.60
2018-08-17T12:54:17.737Z,44.10
2018-08-17T12:56:45.408Z,44.10
2018-08-17T12:59:13.047Z,42.10
2018-08-17T13:01:40.659Z,44.20
2018-08-17T13:04:08.263Z,43.60
2018-08-17T13:06:35.855Z,43.20
2018-08-17T13:09:04.393Z,49.60
2018-08-17T13:11:32.160Z,44.60
2018-08-17T13:14:04.235Z,42.50
2018-08-17T13:16:31.867Z,53.10
2018-08-17T13:18:59.489Z,50.00
2018-08-17T13:21:27.147Z,45.90
2018-08-17T13:23:54.801Z,44.40
2018-08-17T13:26:22.506Z,43.90
2018-08-17T13:28:50.099Z,48.10
2018-08-17T13:31:17.719Z,47.50
2018-08-17T13:33:52.017Z,45.40
2018-08-17T13:36:19.675Z,45.70
2018-08-17T13:38:47.336Z,42.30
2018-08-17T13:41:15.036Z,41.90
2018-08-17T13:43:43.578Z,43.00
2018-08-17T13:46:11.279Z,41.80
2018-08-17T13:48:39.067Z,43.20
2018-08-17T13:51:06.682Z,45.70
2018-08-17T13:53:34.299Z,50.80
2018-08-17T13:56:01.926Z,51.90
2018-08-17T13:58:29.531Z,52.30
2018-08-17T14:00:57.241Z,51.40
2018-08-17T14:03:24.891Z,52.00
2018-08-17T14:05:52.523Z,50.60
2018-08-17T14:08:20.261Z,52.90
2018-08-17T14:10:47.839Z,53.80
2018-08-17T14:13:15.549Z,54.60
2018-08-17T14:15:43.318Z,51.00
2018-08-17T14:18:10.927Z,48.20
2018-08-17T14:20:38.652Z,45.90
2018-08-17T14:23:06.347Z,43.40
2018-08-17T14:25:33.971Z,43.80
2018-08-17T14:28:01.639Z,43.20
2018-08-17T14:30:29.288Z,42.40
2018-08-17T14:32:56.907Z,45.00
2018-08-17T14:35:24.702Z,47.20
2018-08-17T14:37:52.245Z,45.90
2018-08-17T14:40:19.872Z,46.10
2018-08-17T14:42:47.481Z,46.40
2018-08-17T14:45:15.264Z,48.30
2018-08-17T14:47:42.912Z,48.10
2018-08-17T14:50:12.040Z,49.20
2018-08-17T14:52:39.741Z,49.40
2018-08-17T14:55:07.597Z,49.50
2018-08-17T14:57:35.232Z,49.70
2018-08-17T15:00:02.958Z,50.00
2018-08-17T15:02:30.593Z,50.30
2018-08-17T15:04:58.254Z,50.90
2018-08-17T15:07:25.891Z,51.60
2018-08-17T15:09:53.535Z,51.80
2018-08-17T15:12:21.198Z,52.10
2018-08-17T15:14:48.805Z,52.40
2018-08-17T15:17:16.419Z,52.70
2018-08-17T15:19:44.037Z,52.80
2018-08-17T15:22:11.668Z,52.90
2018-08-17T15:24:39.303Z,53.30
2018-08-17T15:27:06.970Z,53.40
2018-08-17T15:29:34.573Z,53.60
2018-08-17T15:32:02.214Z,53.90
2018-08-17T15:34:29.819Z,53.90
2018-08-17T15:36:57.449Z,55.10
2018-08-17T15:39:25.067Z,54.20
2018-08-17T15:41:52.734Z,54.50
2018-08-17T15:44:24.585Z,54.60
2018-08-17T15:46:52.526Z,54.60
2018-08-17T15:49:25.654Z,55.10
2018-08-17T15:51:53.374Z,55.50
2018-08-17T15:54:20.972Z,56.50
2018-08-17T15:56:48.637Z,56.90
2018-08-17T15:59:16.302Z,57.60
2018-08-17T16:01:44.067Z,58.10
2018-08-17T16:04:11.702Z,57.60
2018-08-17T16:06:39.357Z,57.60
2018-08-17T16:09:08.758Z,57.50
2018-08-17T16:11:36.623Z,59.00
2018-08-17T16:14:04.474Z,58.60
2018-08-17T16:16:32.106Z,59.50
2018-08-17T16:18:59.843Z,58.70
2018-08-17T16:21:27.519Z,58.10
2018-08-17T16:23:55.178Z,58.70
2018-08-17T16:26:22.793Z,58.30
2018-08-17T16:28:50.471Z,58.20
2018-08-17T16:31:18.222Z,58.50
2018-08-17T16:33:45.891Z,58.50
2018-08-17T16:36:13.547Z,58.10
2018-08-17T16:38:41.309Z,58.40
2018-08-17T16:41:08.966Z,58.00
2018-08-17T16:43:42.142Z,57.90
2018-08-17T16:46:09.851Z,57.80
2018-08-17T16:48:38.171Z,56.70
2018-08-17T16:51:05.830Z,56.70
2018-08-17T16:53:33.489Z,57.10
2018-08-17T16:56:01.206Z,56.80
2018-08-17T16:58:28.884Z,58.00
2018-08-17T17:00:56.564Z,57.40
2018-08-17T17:03:24.256Z,57.60
2018-08-17T17:05:58.964Z,57.70
2018-08-17T17:08:26.650Z,58.00
2018-08-17T17:10:54.375Z,58.30
2018-08-17T17:13:22.018Z,58.80
2018-08-17T17:15:49.726Z,58.70
2018-08-17T17:18:17.407Z,58.60
2018-08-17T17:20:45.139Z,59.40
2018-08-17T17:23:12.751Z,59.10
2018-08-17T17:25:40.659Z,59.70
2018-08-17T17:28:08.640Z,59.40
2018-08-17T17:30:43.702Z,59.60
2018-08-17T17:33:11.643Z,60.10
2018-08-17T17:35:40.372Z,60.40
2018-08-17T17:38:08.664Z,61.00
2018-08-17T17:40:36.338Z,60.80
2018-08-17T17:43:04.284Z,60.80
2018-08-17T17:45:32.898Z,61.70
2018-08-17T17:48:01.439Z,61.50
2018-08-17T17:50:29.189Z,62.10
2018-08-17T17:52:56.896Z,62.30
2018-08-17T17:55:29.606Z,63.00
2018-08-17T17:57:57.256Z,63.70
2018-08-17T18:00:24.894Z,62.90
2018-08-17T18:02:52.544Z,62.80
2018-08-17T18:05:20.898Z,64.00
2018-08-17T18:07:49.651Z,63.60
2018-08-17T18:10:19.386Z,64.30
2018-08-17T18:12:47.154Z,64.50
2018-08-17T18:15:14.799Z,64.80
2018-08-17T18:17:42.527Z,65.30
2018-08-17T18:20:12.004Z,65.00
2018-08-17T18:22:39.670Z,65.80
2018-08-17T18:25:12.811Z,66.00
2018-08-17T18:27:40.486Z,66.50
2018-08-17T18:30:08.214Z,66.40
2018-08-17T18:32:35.823Z,67.60
2018-08-17T18:35:03.874Z,67.20
2018-08-17T18:37:31.454Z,67.90
2018-08-17T18:39:59.083Z,68.20
2018-08-17T18:42:26.716Z,73.50
2018-08-17T18:44:54.349Z,74.60
2018-08-17T18:47:22.075Z,78.30
2018-08-17T18:49:49.699Z,78.60
2018-08-17T18:52:17.352Z,76.20
2018-08-17T18:54:45.072Z,76.50
2018-08-17T18:57:12.719Z,76.90
2018-08-17T18:59:40.594Z,76.20
2018-08-17T19:02:08.315Z,77.00
2018-08-17T19:04:35.956Z,76.00
2018-08-17T19:07:03.771Z,73.30
2018-08-17T19:09:31.463Z,75.40
2018-08-17T19:11:59.093Z,74.40
2018-08-17T19:14:26.759Z,74.70
2018-08-17T19:16:54.423Z,74.20
2018-08-17T19:19:22.076Z,79.10
2018-08-17T19:21:49.691Z,77.20
2018-08-17T19:24:17.298Z,74.60
2018-08-17T19:26:44.945Z,75.10
2018-08-17T19:29:12.597Z,78.10
2018-08-17T19:31:47.403Z,75.70
2018-08-17T19:34:15.011Z,81.70
2018-08-17T19:36:42.671Z,79.40
2018-08-17T19:39:14.711Z,78.60
2018-08-17T19:41:42.372Z,73.20
2018-08-17T19:44:10.015Z,75.80
2018-08-17T19:46:37.615Z,79.80
2018-08-17T19:49:05.335Z,75.70
2018-08-17T19:51:32.960Z,75.00
2018-08-17T19:54:00.580Z,75.50
2018-08-17T19:56:28.201Z,78.20
2018-08-17T19:58:55.797Z,76.50
2018-08-17T20:01:23.429Z,75.10
2018-08-17T20:03:51.065Z,74.80
2018-08-17T20:06:18.694Z,76.00
2018-08-17T20:08:46.322Z,75.70
2018-08-17T20:11:13.951Z,76.40
2018-08-17T20:13:41.583Z,77.10
2018-08-17T20:16:15.791Z,78.00
2018-08-17T20:18:43.414Z,76.30
2018-08-17T20:21:11.070Z,76.80
2018-08-17T20:23:45.203Z,75.60
2018-08-17T20:26:13.252Z,76.00
2018-08-17T20:28:40.553Z,75.60
2018-08-17T20:31:08.244Z,77.10
2018-08-17T20:33:35.922Z,76.20
2018-08-17T20:36:03.647Z,76.00
2018-08-17T20:38:31.302Z,76.60
2018-08-17T20:40:59.663Z,75.90
2018-08-17T20:43:27.559Z,75.70
2018-08-17T20:46:01.915Z,75.30
2018-08-17T20:48:29.655Z,76.30
2018-08-17T20:50:57.419Z,75.90
2018-08-17T20:53:25.063Z,77.50
2018-08-17T20:55:52.797Z,77.00
2018-08-17T20:58:20.560Z,77.30
2018-08-17T21:00:48.312Z,77.00
2018-08-17T21:03:15.982Z,77.50
2018-08-17T21:05:43.673Z,77.30
2018-08-17T21:08:11.335Z,78.30
2018-08-17T21:10:38.972Z,78.40
2018-08-17T21:13:06.670Z,78.20
2018-08-17T21:15:34.394Z,78.20
2018-08-17T21:18:02.124Z,79.00
2018-08-17T21:20:29.981Z,79.10
2018-08-17T21:22:57.624Z,80.00
2018-08-17T21:25:25.250Z,80.00
2018-08-17T21:27:52.990Z,80.70
2018-08-17T21:30:20.620Z,80.10
2018-08-17T21:32:48.316Z,80.10
2018-08-17T21:35:15.962Z,80.90
2018-08-17T21:37:43.731Z,81.40
2018-08-17T21:40:29.784Z,82.10
2018-08-17T21:42:58.917Z,83.10
2018-08-17T21:45:26.703Z,83.70
2018-08-17T21:47:54.611Z,84.20
2018-08-17T21:50:22.331Z,86.60
2018-08-17T21:52:50.057Z,90.10
2018-08-17T21:55:17.934Z,89.70
2018-08-17T21:57:45.750Z,90.20
2018-08-17T22:00:19.884Z,90.20
2018-08-17T22:02:47.708Z,91.20
2018-08-17T22:05:20.079Z,91.80
2018-08-17T22:07:47.885Z,92.10
2018-08-17T22:10:15.710Z,92.70
2018-08-17T22:12:43.482Z,92.70
2018-08-17T22:15:11.134Z,92.80
2018-08-17T22:17:39.725Z,92.80
2018-08-17T22:20:09.412Z,93.60
2018-08-17T22:22:37.152Z,93.40
2018-08-17T22:25:12.932Z,93.80
2018-08-17T22:27:40.566Z,94.40
2018-08-17T22:30:17.670Z,94.40
2018-08-17T22:32:45.176Z,94.40
2018-08-17T22:35:12.826Z,95.00
2018-08-17T22:37:40.435Z,94.60
2018-08-17T22:40:08.107Z,94.80
2018-08-17T22:42:35.777Z,94.70
2018-08-17T22:45:03.424Z,95.70
2018-08-17T22:47:31.046Z,95.10
2018-08-17T22:49:59.890Z,95.20
2018-08-17T22:52:30.779Z,95.40
2018-08-17T22:54:59.406Z,95.00
2018-08-17T22:57:27.759Z,95.20
2018-08-17T23:00:09.082Z,95.30
2018-08-17T23:02:36.709Z,95.50
2018-08-17T23:05:05.308Z,95.60
2018-08-17T23:07:32.922Z,96.10
2018-08-17T23:10:00.519Z,96.40
2018-08-17T23:12:28.212Z,96.80
2018-08-17T23:14:55.878Z,97.10
2018-08-17T23:17:23.495Z,97.30
2018-08-17T23:19:51.116Z,97.50
2018-08-17T23:22:18.766Z,97.20
2018-08-17T23:24:46.441Z,97.30
2018-08-17T23:27:14.043Z,97.40
2018-08-17T23:29:41.850Z,97.30
2018-08-17T23:32:09.492Z,97.40
2018-08-17T23:34:37.200Z,97.00
2018-08-17T23:37:04.931Z,97.10
2018-08-17T23:39:32.594Z,97.10
2018-08-17T23:42:00.295Z,98.00
2018-08-17T23:44:27.962Z,99.00
2018-08-17T23:46:55.662Z,99.90
2018-08-17T23:49:23.385Z,99.90
2018-08-17T23:51:51.013Z,99.90
2018-08-17T23:54:18.719Z,99.90
2018-08-17T23:56:46.339Z,99.90
2018-08-17T23:59:13.938Z,99.90
